sensor_id;sensor_type;location;lat;lon;timestamp;temperature;humidity
43320;DHT22;28914;48.722;9.332;2022-12-07T00:02:14;8.70;82.20
43320;DHT22;28914;48.722;9.332;2022-12-07T00:07:33;8.70;82.20
43320;DHT22;28914;48.722;9.332;2022-12-07T00:12:53;8.70;82.10
43320;DHT22;28914;48.722;9.332;2022-12-07T00:18:12;8.60;82.10
43320;DHT22;28914;48.722;9.332;2022-12-07T00:23:31;8.60;82.10
43320;DHT22;28914;48.722;9.332;2022-12-07T00:28:53;8.70;82.10
43320;DHT22;28914;48.722;9.332;2022-12-07T00:34:17;8.70;82.20
43320;DHT22;28914;48.722;9.332;2022-12-07T00:39:37;8.60;82.10
43320;DHT22;28914;48.722;9.332;2022-12-07T00:44:56;8.70;82.10
43320;DHT22;28914;48.722;9.332;2022-12-07T00:50:15;8.60;82.10
43320;DHT22;28914;48.722;9.332;2022-12-07T00:55:35;8.60;82.10
43320;DHT22;28914;48.722;9.332;2022-12-07T01:01:00;8.60;82.10
43320;DHT22;28914;48.722;9.332;2022-12-07T01:06:21;8.50;82.00
43320;DHT22;28914;48.722;9.332;2022-12-07T01:11:41;8.50;82.10
43320;DHT22;28914;48.722;9.332;2022-12-07T01:17:00;8.60;82.10
43320;DHT22;28914;48.722;9.332;2022-12-07T01:22:19;8.50;82.10
43320;DHT22;28914;48.722;9.332;2022-12-07T01:27:38;8.60;82.20
43320;DHT22;28914;48.722;9.332;2022-12-07T01:32:58;8.60;82.20
43320;DHT22;28914;48.722;9.332;2022-12-07T01:38:17;8.60;82.00
43320;DHT22;28914;48.722;9.332;2022-12-07T01:44:05;8.50;81.80
43320;DHT22;28914;48.722;9.332;2022-12-07T01:54:47;8.50;81.70
43320;DHT22;28914;48.722;9.332;2022-12-07T02:00:09;8.40;82.40
43320;DHT22;28914;48.722;9.332;2022-12-07T02:05:29;8.30;81.60
43320;DHT22;28914;48.722;9.332;2022-12-07T02:10:49;8.30;81.50
43320;DHT22;28914;48.722;9.332;2022-12-07T02:16:32;8.20;81.50
43320;DHT22;28914;48.722;9.332;2022-12-07T02:27:50;8.10;81.50
43320;DHT22;28914;48.722;9.332;2022-12-07T02:33:16;8.10;81.70
43320;DHT22;28914;48.722;9.332;2022-12-07T02:44:08;8.10;81.70
43320;DHT22;28914;48.722;9.332;2022-12-07T02:49:29;8.10;81.80
43320;DHT22;28914;48.722;9.332;2022-12-07T02:54:48;8.00;81.70
43320;DHT22;28914;48.722;9.332;2022-12-07T03:00:09;8.00;81.90
43320;DHT22;28914;48.722;9.332;2022-12-07T03:05:46;8.00;82.00
43320;DHT22;28914;48.722;9.332;2022-12-07T03:11:16;8.00;82.00
43320;DHT22;28914;48.722;9.332;2022-12-07T03:16:43;7.90;82.10
43320;DHT22;28914;48.722;9.332;2022-12-07T03:22:07;7.90;82.30
43320;DHT22;28914;48.722;9.332;2022-12-07T03:27:33;7.90;82.20
43320;DHT22;28914;48.722;9.332;2022-12-07T03:33:13;7.90;82.20
43320;DHT22;28914;48.722;9.332;2022-12-07T03:38:45;7.80;82.20
43320;DHT22;28914;48.722;9.332;2022-12-07T03:44:07;7.80;82.20
43320;DHT22;28914;48.722;9.332;2022-12-07T03:49:39;7.80;82.30
43320;DHT22;28914;48.722;9.332;2022-12-07T03:55:14;7.80;82.50
43320;DHT22;28914;48.722;9.332;2022-12-07T04:00:37;7.80;82.50
43320;DHT22;28914;48.722;9.332;2022-12-07T04:05:56;7.70;82.40
43320;DHT22;28914;48.722;9.332;2022-12-07T04:11:17;7.70;82.50
43320;DHT22;28914;48.722;9.332;2022-12-07T04:16:36;7.70;82.50
43320;DHT22;28914;48.722;9.332;2022-12-07T04:21:56;7.70;82.50
43320;DHT22;28914;48.722;9.332;2022-12-07T04:27:15;7.60;82.50
43320;DHT22;28914;48.722;9.332;2022-12-07T04:32:35;7.60;82.50
43320;DHT22;28914;48.722;9.332;2022-12-07T04:37:54;7.50;82.30
43320;DHT22;28914;48.722;9.332;2022-12-07T04:43:13;7.50;82.30
43320;DHT22;28914;48.722;9.332;2022-12-07T04:48:32;7.40;82.40
43320;DHT22;28914;48.722;9.332;2022-12-07T04:53:52;7.30;82.30
43320;DHT22;28914;48.722;9.332;2022-12-07T04:59:12;7.10;82.30
43320;DHT22;28914;48.722;9.332;2022-12-07T05:04:31;7.00;82.20
43320;DHT22;28914;48.722;9.332;2022-12-07T05:09:50;6.80;82.00
43320;DHT22;28914;48.722;9.332;2022-12-07T05:15:09;6.60;82.30
43320;DHT22;28914;48.722;9.332;2022-12-07T05:20:29;6.50;82.60
43320;DHT22;28914;48.722;9.332;2022-12-07T05:25:48;6.40;83.20
43320;DHT22;28914;48.722;9.332;2022-12-07T05:31:07;6.40;83.50
43320;DHT22;28914;48.722;9.332;2022-12-07T05:36:26;6.40;83.70
43320;DHT22;28914;48.722;9.332;2022-12-07T05:41:47;6.40;83.90
43320;DHT22;28914;48.722;9.332;2022-12-07T05:47:25;6.40;83.80
43320;DHT22;28914;48.722;9.332;2022-12-07T05:52:45;6.40;83.90
43320;DHT22;28914;48.722;9.332;2022-12-07T05:58:04;6.40;84.00
43320;DHT22;28914;48.722;9.332;2022-12-07T06:03:42;6.30;84.00
43320;DHT22;28914;48.722;9.332;2022-12-07T06:09:02;6.30;83.90
43320;DHT22;28914;48.722;9.332;2022-12-07T06:14:21;6.30;83.80
43320;DHT22;28914;48.722;9.332;2022-12-07T06:19:40;6.20;83.80
43320;DHT22;28914;48.722;9.332;2022-12-07T06:25:00;6.20;84.00
43320;DHT22;28914;48.722;9.332;2022-12-07T06:30:20;6.20;84.10
43320;DHT22;28914;48.722;9.332;2022-12-07T06:35:39;6.20;84.10
43320;DHT22;28914;48.722;9.332;2022-12-07T06:40:58;6.20;84.20
43320;DHT22;28914;48.722;9.332;2022-12-07T06:46:18;6.20;85.10
43320;DHT22;28914;48.722;9.332;2022-12-07T06:51:37;6.10;84.40
43320;DHT22;28914;48.722;9.332;2022-12-07T06:57:00;6.10;84.70
43320;DHT22;28914;48.722;9.332;2022-12-07T07:02:19;6.10;84.80
43320;DHT22;28914;48.722;9.332;2022-12-07T07:07:38;6.10;85.00
43320;DHT22;28914;48.722;9.332;2022-12-07T07:12:58;6.20;85.20
43320;DHT22;28914;48.722;9.332;2022-12-07T07:18:17;6.30;85.30
43320;DHT22;28914;48.722;9.332;2022-12-07T07:23:36;6.30;85.30
43320;DHT22;28914;48.722;9.332;2022-12-07T07:28:55;6.40;85.30
43320;DHT22;28914;48.722;9.332;2022-12-07T07:34:14;6.40;85.30
43320;DHT22;28914;48.722;9.332;2022-12-07T07:39:34;6.50;85.40
43320;DHT22;28914;48.722;9.332;2022-12-07T07:44:53;6.60;85.60
43320;DHT22;28914;48.722;9.332;2022-12-07T07:50:12;6.70;85.60
43320;DHT22;28914;48.722;9.332;2022-12-07T07:55:32;6.70;85.50
43320;DHT22;28914;48.722;9.332;2022-12-07T08:00:51;6.80;85.50
43320;DHT22;28914;48.722;9.332;2022-12-07T08:06:10;6.80;85.40
43320;DHT22;28914;48.722;9.332;2022-12-07T08:11:29;6.90;85.40
43320;DHT22;28914;48.722;9.332;2022-12-07T08:16:49;7.00;85.40
43320;DHT22;28914;48.722;9.332;2022-12-07T08:22:08;7.10;86.20
43320;DHT22;28914;48.722;9.332;2022-12-07T08:27:27;7.20;85.40
43320;DHT22;28914;48.722;9.332;2022-12-07T08:32:47;7.40;85.30
43320;DHT22;28914;48.722;9.332;2022-12-07T08:38:06;7.50;84.80
43320;DHT22;28914;48.722;9.332;2022-12-07T08:43:25;7.70;84.50
43320;DHT22;28914;48.722;9.332;2022-12-07T08:48:58;7.70;84.00
43320;DHT22;28914;48.722;9.332;2022-12-07T08:54:20;7.90;83.70
43320;DHT22;28914;48.722;9.332;2022-12-07T08:59:40;8.00;84.00
43320;DHT22;28914;48.722;9.332;2022-12-07T09:04:59;8.20;84.10
43320;DHT22;28914;48.722;9.332;2022-12-07T09:10:18;8.40;84.00
43320;DHT22;28914;48.722;9.332;2022-12-07T09:15:37;8.70;84.00
43320;DHT22;28914;48.722;9.332;2022-12-07T09:20:56;9.00;83.30
43320;DHT22;28914;48.722;9.332;2022-12-07T09:26:16;9.20;82.60
43320;DHT22;28914;48.722;9.332;2022-12-07T09:31:36;9.40;81.80
43320;DHT22;28914;48.722;9.332;2022-12-07T09:36:55;9.60;81.00
43320;DHT22;28914;48.722;9.332;2022-12-07T09:42:37;9.80;80.20
43320;DHT22;28914;48.722;9.332;2022-12-07T09:47:58;9.90;79.00
43320;DHT22;28914;48.722;9.332;2022-12-07T09:53:26;10.00;78.30
43320;DHT22;28914;48.722;9.332;2022-12-07T09:58:47;10.20;78.70
43320;DHT22;28914;48.722;9.332;2022-12-07T10:04:20;10.30;78.30
43320;DHT22;28914;48.722;9.332;2022-12-07T10:09:40;10.50;77.00
43320;DHT22;28914;48.722;9.332;2022-12-07T10:15:02;10.60;76.10
43320;DHT22;28914;48.722;9.332;2022-12-07T10:20:26;10.80;73.50
43320;DHT22;28914;48.722;9.332;2022-12-07T10:25:45;10.80;73.20
43320;DHT22;28914;48.722;9.332;2022-12-07T10:31:17;10.80;73.30
43320;DHT22;28914;48.722;9.332;2022-12-07T10:36:38;10.90;73.20
43320;DHT22;28914;48.722;9.332;2022-12-07T10:41:58;10.90;73.10
43320;DHT22;28914;48.722;9.332;2022-12-07T10:53:15;11.00;70.80
43320;DHT22;28914;48.722;9.332;2022-12-07T10:58:53;10.90;69.20
43320;DHT22;28914;48.722;9.332;2022-12-07T11:10:05;10.60;70.60
43320;DHT22;28914;48.722;9.332;2022-12-07T11:38:21;10.30;71.30
43320;DHT22;28914;48.722;9.332;2022-12-07T11:49:15;10.30;71.10
43320;DHT22;28914;48.722;9.332;2022-12-07T11:54:41;10.20;71.70
43320;DHT22;28914;48.722;9.332;2022-12-07T12:00:05;10.20;71.20
43320;DHT22;28914;48.722;9.332;2022-12-07T12:05:26;10.20;71.80
43320;DHT22;28914;48.722;9.332;2022-12-07T12:11:05;10.20;71.70
43320;DHT22;28914;48.722;9.332;2022-12-07T12:22:20;10.30;72.10
43320;DHT22;28914;48.722;9.332;2022-12-07T12:27:47;10.30;71.80
43320;DHT22;28914;48.722;9.332;2022-12-07T12:33:49;10.30;71.80
43320;DHT22;28914;48.722;9.332;2022-12-07T12:39:09;10.30;71.80
43320;DHT22;28914;48.722;9.332;2022-12-07T12:50:16;10.20;72.00
43320;DHT22;28914;48.722;9.332;2022-12-07T13:06:54;9.90;73.20
43320;DHT22;28914;48.722;9.332;2022-12-07T13:12:14;9.80;73.70
43320;DHT22;28914;48.722;9.332;2022-12-07T13:22:54;9.80;74.40
43320;DHT22;28914;48.722;9.332;2022-12-07T13:28:18;9.80;74.60
43320;DHT22;28914;48.722;9.332;2022-12-07T13:33:38;9.80;74.70
43320;DHT22;28914;48.722;9.332;2022-12-07T13:39:00;9.80;74.70
43320;DHT22;28914;48.722;9.332;2022-12-07T13:44:19;9.80;74.50
43320;DHT22;28914;48.722;9.332;2022-12-07T13:49:48;9.70;74.60
43320;DHT22;28914;48.722;9.332;2022-12-07T13:55:16;9.70;74.60
43320;DHT22;28914;48.722;9.332;2022-12-07T14:00:36;9.60;74.30
43320;DHT22;28914;48.722;9.332;2022-12-07T14:06:19;9.60;74.50
43320;DHT22;28914;48.722;9.332;2022-12-07T14:11:39;9.50;74.40
43320;DHT22;28914;48.722;9.332;2022-12-07T14:17:12;9.50;74.70
43320;DHT22;28914;48.722;9.332;2022-12-07T14:22:34;9.50;74.80
43320;DHT22;28914;48.722;9.332;2022-12-07T14:27:59;9.50;74.90
43320;DHT22;28914;48.722;9.332;2022-12-07T14:33:19;9.60;74.80
43320;DHT22;28914;48.722;9.332;2022-12-07T14:38:39;9.50;74.30
43320;DHT22;28914;48.722;9.332;2022-12-07T14:44:00;9.50;74.60
43320;DHT22;28914;48.722;9.332;2022-12-07T14:49:19;9.50;74.70
43320;DHT22;28914;48.722;9.332;2022-12-07T14:54:38;9.50;74.60
43320;DHT22;28914;48.722;9.332;2022-12-07T14:59:57;9.40;74.40
43320;DHT22;28914;48.722;9.332;2022-12-07T15:05:17;9.50;74.60
43320;DHT22;28914;48.722;9.332;2022-12-07T15:10:37;9.40;74.50
43320;DHT22;28914;48.722;9.332;2022-12-07T15:15:58;9.30;74.60
43320;DHT22;28914;48.722;9.332;2022-12-07T15:21:17;9.30;74.70
43320;DHT22;28914;48.722;9.332;2022-12-07T15:26:37;9.20;74.70
43320;DHT22;28914;48.722;9.332;2022-12-07T15:31:56;9.20;74.80
43320;DHT22;28914;48.722;9.332;2022-12-07T15:37:15;9.20;74.90
43320;DHT22;28914;48.722;9.332;2022-12-07T15:42:36;9.20;75.10
43320;DHT22;28914;48.722;9.332;2022-12-07T15:47:55;9.20;75.10
43320;DHT22;28914;48.722;9.332;2022-12-07T15:53:14;9.20;75.10
43320;DHT22;28914;48.722;9.332;2022-12-07T15:58:34;9.10;75.10
43320;DHT22;28914;48.722;9.332;2022-12-07T16:03:53;9.10;75.20
43320;DHT22;28914;48.722;9.332;2022-12-07T16:09:13;9.10;75.30
43320;DHT22;28914;48.722;9.332;2022-12-07T16:14:32;9.00;75.30
43320;DHT22;28914;48.722;9.332;2022-12-07T16:19:52;9.00;75.50
43320;DHT22;28914;48.722;9.332;2022-12-07T16:25:12;8.90;75.50
43320;DHT22;28914;48.722;9.332;2022-12-07T16:30:31;8.90;75.30
43320;DHT22;28914;48.722;9.332;2022-12-07T16:35:50;8.80;75.20
43320;DHT22;28914;48.722;9.332;2022-12-07T16:41:10;8.70;75.30
43320;DHT22;28914;48.722;9.332;2022-12-07T16:46:32;8.70;75.50
43320;DHT22;28914;48.722;9.332;2022-12-07T16:51:52;8.70;75.50
43320;DHT22;28914;48.722;9.332;2022-12-07T16:57:11;8.70;75.40
43320;DHT22;28914;48.722;9.332;2022-12-07T17:02:30;8.60;75.40
43320;DHT22;28914;48.722;9.332;2022-12-07T17:07:49;8.60;75.40
43320;DHT22;28914;48.722;9.332;2022-12-07T17:13:09;8.50;75.30
43320;DHT22;28914;48.722;9.332;2022-12-07T17:18:51;8.50;75.30
43320;DHT22;28914;48.722;9.332;2022-12-07T17:24:13;8.50;75.40
43320;DHT22;28914;48.722;9.332;2022-12-07T17:29:33;8.40;75.20
43320;DHT22;28914;48.722;9.332;2022-12-07T17:34:53;8.30;75.10
43320;DHT22;28914;48.722;9.332;2022-12-07T17:40:13;8.30;75.30
43320;DHT22;28914;48.722;9.332;2022-12-07T17:45:32;8.20;75.60
43320;DHT22;28914;48.722;9.332;2022-12-07T17:50:52;8.20;75.70
43320;DHT22;28914;48.722;9.332;2022-12-07T17:56:31;8.20;75.80
43320;DHT22;28914;48.722;9.332;2022-12-07T18:01:51;8.20;75.80
43320;DHT22;28914;48.722;9.332;2022-12-07T18:07:10;8.20;75.80
43320;DHT22;28914;48.722;9.332;2022-12-07T18:12:30;8.20;75.80
43320;DHT22;28914;48.722;9.332;2022-12-07T18:17:49;8.20;75.80
43320;DHT22;28914;48.722;9.332;2022-12-07T18:23:09;8.20;75.80
43320;DHT22;28914;48.722;9.332;2022-12-07T18:28:30;8.20;75.80
43320;DHT22;28914;48.722;9.332;2022-12-07T18:33:50;8.10;75.90
43320;DHT22;28914;48.722;9.332;2022-12-07T18:39:09;8.10;75.90
43320;DHT22;28914;48.722;9.332;2022-12-07T18:44:28;8.10;76.00
43320;DHT22;28914;48.722;9.332;2022-12-07T18:49:48;8.10;76.20
43320;DHT22;28914;48.722;9.332;2022-12-07T18:55:07;8.10;76.30
43320;DHT22;28914;48.722;9.332;2022-12-07T19:00:28;8.00;76.50
43320;DHT22;28914;48.722;9.332;2022-12-07T19:05:47;8.00;76.70
43320;DHT22;28914;48.722;9.332;2022-12-07T19:11:06;7.90;76.70
43320;DHT22;28914;48.722;9.332;2022-12-07T19:16:46;7.90;76.80
43320;DHT22;28914;48.722;9.332;2022-12-07T19:22:09;7.90;77.00
43320;DHT22;28914;48.722;9.332;2022-12-07T19:27:28;7.90;77.00
43320;DHT22;28914;48.722;9.332;2022-12-07T19:32:50;7.90;77.10
43320;DHT22;28914;48.722;9.332;2022-12-07T19:38:09;7.80;77.10
43320;DHT22;28914;48.722;9.332;2022-12-07T19:43:28;7.80;77.20
43320;DHT22;28914;48.722;9.332;2022-12-07T19:48:47;7.80;77.20
43320;DHT22;28914;48.722;9.332;2022-12-07T19:54:08;7.80;77.20
43320;DHT22;28914;48.722;9.332;2022-12-07T19:59:28;7.80;77.00
43320;DHT22;28914;48.722;9.332;2022-12-07T20:04:47;7.80;76.80
43320;DHT22;28914;48.722;9.332;2022-12-07T20:10:07;7.70;76.70
43320;DHT22;28914;48.722;9.332;2022-12-07T20:15:27;7.70;76.70
43320;DHT22;28914;48.722;9.332;2022-12-07T20:20:53;7.60;77.10
43320;DHT22;28914;48.722;9.332;2022-12-07T20:26:14;7.60;77.30
43320;DHT22;28914;48.722;9.332;2022-12-07T20:31:33;7.60;77.50
43320;DHT22;28914;48.722;9.332;2022-12-07T20:36:53;7.60;77.70
43320;DHT22;28914;48.722;9.332;2022-12-07T20:42:13;7.60;77.60
43320;DHT22;28914;48.722;9.332;2022-12-07T20:47:51;7.60;77.70
43320;DHT22;28914;48.722;9.332;2022-12-07T20:53:10;7.60;77.80
43320;DHT22;28914;48.722;9.332;2022-12-07T20:58:30;7.50;77.80
43320;DHT22;28914;48.722;9.332;2022-12-07T21:03:52;7.50;77.90
43320;DHT22;28914;48.722;9.332;2022-12-07T21:09:12;7.50;78.00
43320;DHT22;28914;48.722;9.332;2022-12-07T21:14:31;7.50;78.10
43320;DHT22;28914;48.722;9.332;2022-12-07T21:19:50;7.40;78.20
43320;DHT22;28914;48.722;9.332;2022-12-07T21:25:09;7.40;78.20
43320;DHT22;28914;48.722;9.332;2022-12-07T21:30:29;7.40;78.30
43320;DHT22;28914;48.722;9.332;2022-12-07T21:35:48;7.40;78.40
43320;DHT22;28914;48.722;9.332;2022-12-07T21:46:30;7.30;78.40
43320;DHT22;28914;48.722;9.332;2022-12-07T21:51:50;7.30;78.50
43320;DHT22;28914;48.722;9.332;2022-12-07T21:57:09;7.30;78.60
43320;DHT22;28914;48.722;9.332;2022-12-07T22:02:28;7.30;78.60
43320;DHT22;28914;48.722;9.332;2022-12-07T22:07:47;7.20;78.60
43320;DHT22;28914;48.722;9.332;2022-12-07T22:13:08;7.20;79.10
43320;DHT22;28914;48.722;9.332;2022-12-07T22:18:27;7.20;78.70
43320;DHT22;28914;48.722;9.332;2022-12-07T22:23:46;7.20;78.60
43320;DHT22;28914;48.722;9.332;2022-12-07T22:29:05;7.20;79.30
43320;DHT22;28914;48.722;9.332;2022-12-07T22:34:24;7.10;78.60
43320;DHT22;28914;48.722;9.332;2022-12-07T22:39:45;7.10;78.70
43320;DHT22;28914;48.722;9.332;2022-12-07T22:45:05;7.10;78.70
43320;DHT22;28914;48.722;9.332;2022-12-07T22:50:24;7.00;78.60
43320;DHT22;28914;48.722;9.332;2022-12-07T22:55:43;6.90;78.50
43320;DHT22;28914;48.722;9.332;2022-12-07T23:01:07;6.80;78.50
43320;DHT22;28914;48.722;9.332;2022-12-07T23:06:28;6.70;78.60
43320;DHT22;28914;48.722;9.332;2022-12-07T23:11:49;6.60;78.70
43320;DHT22;28914;48.722;9.332;2022-12-07T23:17:27;6.60;78.80
43320;DHT22;28914;48.722;9.332;2022-12-07T23:22:46;6.50;79.00
43320;DHT22;28914;48.722;9.332;2022-12-07T23:28:05;6.30;79.70
43320;DHT22;28914;48.722;9.332;2022-12-07T23:33:24;6.20;78.90
43320;DHT22;28914;48.722;9.332;2022-12-07T23:38:46;6.10;78.90
43320;DHT22;28914;48.722;9.332;2022-12-07T23:44:05;5.80;78.70
43320;DHT22;28914;48.722;9.332;2022-12-07T23:49:24;5.70;78.90
43320;DHT22;28914;48.722;9.332;2022-12-07T23:54:44;5.60;79.20
